createdAt,value
2022-10-09T00:00:48.035Z,13.39
2022-10-09T00:03:17.095Z,13.03
2022-10-09T00:05:45.214Z,13.39
2022-10-09T00:08:11.918Z,13.46
2022-10-09T00:10:42.884Z,12.66
2022-10-09T00:13:09.544Z,13.27
2022-10-09T00:15:43.845Z,13.20
2022-10-09T00:18:12.566Z,12.88
2022-10-09T00:20:41.423Z,13.08
2022-10-09T00:23:08.422Z,13.16
2022-10-09T00:25:38.577Z,13.23
2022-10-09T00:28:05.179Z,13.08
2022-10-09T00:30:32.162Z,13.27
2022-10-09T00:32:58.687Z,13.14
2022-10-09T00:35:25.186Z,12.91
2022-10-09T00:37:51.705Z,12.71
2022-10-09T00:40:18.319Z,12.61
2022-10-09T00:42:45.785Z,12.46
2022-10-09T00:45:22.197Z,11.75
2022-10-09T00:47:54.908Z,11.67
2022-10-09T00:50:22.571Z,12.23
2022-10-09T00:52:52.555Z,12.26
2022-10-09T00:55:19.323Z,12.14
2022-10-09T00:57:46.473Z,11.78
2022-10-09T01:00:14.430Z,11.92
2022-10-09T01:02:41.280Z,12.41
2022-10-09T01:05:08.937Z,12.55
2022-10-09T01:07:49.774Z,12.38
2022-10-09T01:10:16.393Z,12.62
2022-10-09T01:13:12.133Z,12.50
2022-10-09T01:15:47.732Z,12.39
2022-10-09T01:18:32.230Z,12.53
2022-10-09T01:21:07.868Z,12.55
2022-10-09T01:23:52.634Z,12.37
2022-10-09T01:26:50.306Z,12.34
2022-10-09T01:29:19.183Z,12.38
2022-10-09T01:31:47.642Z,12.45
2022-10-09T01:34:16.002Z,12.50
2022-10-09T01:36:43.525Z,11.88
2022-10-09T01:39:13.868Z,11.93
2022-10-09T01:41:40.638Z,11.56
2022-10-09T01:44:21.684Z,11.83
2022-10-09T01:46:48.307Z,11.99
2022-10-09T01:49:35.048Z,12.28
2022-10-09T01:52:42.150Z,12.22
2022-10-09T01:55:13.829Z,12.42
2022-10-09T01:57:45.666Z,12.34
2022-10-09T02:00:13.105Z,12.26
2022-10-09T02:02:50.653Z,12.25
2022-10-09T02:05:25.831Z,12.57
2022-10-09T02:07:53.444Z,12.50
2022-10-09T02:10:20.938Z,12.64
2022-10-09T02:12:52.770Z,12.37
2022-10-09T02:15:20.637Z,12.31
2022-10-09T02:17:49.462Z,12.41
2022-10-09T02:20:25.771Z,12.45
2022-10-09T02:22:53.470Z,12.16
2022-10-09T02:25:20.705Z,12.47
2022-10-09T02:27:47.842Z,12.27
2022-10-09T02:30:15.218Z,12.06
2022-10-09T02:32:41.899Z,12.01
2022-10-09T02:35:08.854Z,12.17
2022-10-09T02:37:35.865Z,12.04
2022-10-09T02:40:05.841Z,12.12
2022-10-09T02:42:34.923Z,12.19
2022-10-09T02:45:01.838Z,11.99
2022-10-09T02:47:28.335Z,12.32
2022-10-09T02:49:56.712Z,11.67
2022-10-09T02:52:23.162Z,12.20
2022-10-09T02:54:49.598Z,11.86
2022-10-09T02:57:16.126Z,12.03
2022-10-09T02:59:42.571Z,12.16
2022-10-09T03:02:09.329Z,12.31
2022-10-09T03:04:35.836Z,12.33
2022-10-09T03:07:03.172Z,12.15
2022-10-09T03:09:33.508Z,11.71
2022-10-09T03:12:00.364Z,11.67
2022-10-09T03:14:26.859Z,11.84
2022-10-09T03:16:53.325Z,11.88
2022-10-09T03:19:19.827Z,12.13
2022-10-09T03:21:46.353Z,11.75
2022-10-09T03:24:12.824Z,11.84
2022-10-09T03:26:39.352Z,11.68
2022-10-09T03:29:05.860Z,11.87
2022-10-09T03:31:51.327Z,11.98
2022-10-09T03:34:19.156Z,12.01
2022-10-09T03:36:45.746Z,12.09
2022-10-09T03:39:12.247Z,11.49
2022-10-09T03:41:38.680Z,10.85
2022-10-09T03:44:05.292Z,11.43
2022-10-09T03:46:31.910Z,11.56
2022-10-09T03:48:58.441Z,11.56
2022-10-09T03:51:24.879Z,11.59
2022-10-09T03:53:51.868Z,11.35
2022-10-09T03:56:18.387Z,11.69
2022-10-09T03:58:44.865Z,11.78
2022-10-09T04:01:11.603Z,11.62
2022-10-09T04:03:38.077Z,11.88
2022-10-09T04:06:04.888Z,11.66
2022-10-09T04:08:31.352Z,11.54
2022-10-09T04:10:58.977Z,11.86
2022-10-09T04:13:25.674Z,11.84
2022-10-09T04:15:53.114Z,11.43
2022-10-09T04:18:19.830Z,11.60
2022-10-09T04:20:51.115Z,11.57
2022-10-09T04:23:18.707Z,11.77
2022-10-09T04:25:45.888Z,11.71
2022-10-09T04:28:12.866Z,11.44
2022-10-09T04:30:39.489Z,11.33
2022-10-09T04:33:11.781Z,11.71
2022-10-09T04:35:43.578Z,11.49
2022-10-09T04:38:10.353Z,11.64
2022-10-09T04:40:37.292Z,11.63
2022-10-09T04:43:04.234Z,11.60
2022-10-09T04:45:30.693Z,10.91
2022-10-09T04:47:57.171Z,11.63
2022-10-09T04:50:23.747Z,11.68
2022-10-09T04:52:50.481Z,11.53
2022-10-09T04:55:17.141Z,11.59
2022-10-09T04:57:43.620Z,11.59
2022-10-09T05:00:12.527Z,11.27
2022-10-09T05:02:39.399Z,11.55
2022-10-09T05:05:06.126Z,11.42
2022-10-09T05:07:32.589Z,11.51
2022-10-09T05:09:59.368Z,11.52
2022-10-09T05:12:25.878Z,10.94
2022-10-09T05:14:52.521Z,11.42
2022-10-09T05:17:22.952Z,11.21
2022-10-09T05:19:49.882Z,11.33
2022-10-09T05:22:16.813Z,11.58
2022-10-09T05:24:43.333Z,11.22
2022-10-09T05:27:09.800Z,11.28
2022-10-09T05:29:36.454Z,11.57
2022-10-09T05:32:03.089Z,11.54
2022-10-09T05:34:30.896Z,11.50
2022-10-09T05:36:57.466Z,11.56
2022-10-09T05:39:23.953Z,11.06
2022-10-09T05:41:50.568Z,11.12
2022-10-09T05:44:17.107Z,11.22
2022-10-09T05:46:43.565Z,11.07
2022-10-09T05:49:11.954Z,11.42
2022-10-09T05:51:39.955Z,11.51
2022-10-09T05:54:06.899Z,11.36
2022-10-09T05:56:38.139Z,11.57
2022-10-09T05:59:09.810Z,11.61
2022-10-09T06:01:42.327Z,11.57
2022-10-09T06:04:13.607Z,11.67
2022-10-09T06:06:40.243Z,11.54
2022-10-09T06:09:08.258Z,11.61
2022-10-09T06:11:37.230Z,11.23
2022-10-09T06:14:06.417Z,11.30
2022-10-09T06:16:35.669Z,11.47
2022-10-09T06:19:03.197Z,11.37
2022-10-09T06:21:30.268Z,11.19
2022-10-09T06:24:01.506Z,11.60
2022-10-09T06:26:32.212Z,11.47
2022-10-09T06:29:00.943Z,11.88
2022-10-09T06:31:30.486Z,12.08
2022-10-09T06:33:59.490Z,11.92
2022-10-09T06:36:28.707Z,12.13
2022-10-09T06:38:55.542Z,12.04
2022-10-09T06:41:25.165Z,12.19
2022-10-09T06:43:56.998Z,12.43
2022-10-09T06:46:26.241Z,12.58
2022-10-09T06:48:52.973Z,12.58
2022-10-09T06:51:21.554Z,12.44
2022-10-09T06:53:52.725Z,12.70
2022-10-09T06:56:21.929Z,12.72
2022-10-09T06:58:48.743Z,11.88
2022-10-09T07:01:16.644Z,12.62
2022-10-09T07:03:45.107Z,12.61
2022-10-09T07:06:19.669Z,12.72
2022-10-09T07:08:49.778Z,12.79
2022-10-09T07:11:17.637Z,13.13
2022-10-09T07:13:44.488Z,13.16
2022-10-09T07:16:11.371Z,13.52
2022-10-09T07:18:38.155Z,13.84
2022-10-09T07:21:07.660Z,13.68
2022-10-09T07:23:35.839Z,13.77
2022-10-09T07:26:08.412Z,14.23
2022-10-09T07:28:35.102Z,14.35
2022-10-09T07:31:05.510Z,14.73
2022-10-09T07:33:32.139Z,15.01
2022-10-09T07:36:00.209Z,14.80
2022-10-09T07:38:27.344Z,14.96
2022-10-09T07:40:54.234Z,15.08
2022-10-09T07:43:21.403Z,14.20
2022-10-09T07:45:48.046Z,14.63
2022-10-09T07:48:14.537Z,15.11
2022-10-09T07:50:41.232Z,15.73
2022-10-09T07:53:08.767Z,15.52
2022-10-09T07:55:35.784Z,16.15
2022-10-09T07:58:02.511Z,16.10
2022-10-09T08:00:28.973Z,16.40
2022-10-09T08:02:55.660Z,16.97
2022-10-09T08:05:22.101Z,16.91
2022-10-09T08:07:48.721Z,17.15
2022-10-09T08:10:15.404Z,16.75
2022-10-09T08:12:42.149Z,17.43
2022-10-09T08:15:09.209Z,17.22
2022-10-09T08:17:39.897Z,17.80
2022-10-09T08:20:07.341Z,18.02
2022-10-09T08:22:33.901Z,17.94
2022-10-09T08:25:00.476Z,17.83
2022-10-09T08:27:26.944Z,17.82
2022-10-09T08:29:53.437Z,17.89
2022-10-09T08:32:20.351Z,18.67
2022-10-09T08:34:47.428Z,19.00
2022-10-09T08:37:13.929Z,19.06
2022-10-09T08:39:40.374Z,18.21
2022-10-09T08:42:07.176Z,19.42
2022-10-09T08:44:39.293Z,19.63
2022-10-09T08:47:39.635Z,20.11
2022-10-09T08:50:26.047Z,20.20
2022-10-09T08:53:04.774Z,19.69
2022-10-09T08:55:45.887Z,19.72
2022-10-09T08:58:17.277Z,19.98
2022-10-09T09:00:53.246Z,21.21
2022-10-09T09:03:41.613Z,20.07
2022-10-09T09:06:25.110Z,20.45
2022-10-09T09:09:36.427Z,20.09
2022-10-09T09:12:09.091Z,21.78
2022-10-09T09:14:38.756Z,22.23
2022-10-09T09:17:15.834Z,23.15
2022-10-09T09:19:45.433Z,23.21
2022-10-09T09:22:14.135Z,21.24
2022-10-09T09:24:45.077Z,22.55
2022-10-09T09:27:15.224Z,22.31
2022-10-09T09:30:03.322Z,22.77
2022-10-09T09:32:31.467Z,23.10
2022-10-09T09:35:11.802Z,27.40
2022-10-09T09:37:41.716Z,31.87
2022-10-09T09:40:36.632Z,34.82
2022-10-09T09:43:11.452Z,40.48
2022-10-09T09:45:38.489Z,43.70
2022-10-09T09:48:12.454Z,42.95
2022-10-09T09:50:50.678Z,47.15
2022-10-09T09:53:38.195Z,47.64
2022-10-09T09:56:05.065Z,50.09
2022-10-09T09:58:39.446Z,50.42
2022-10-09T10:01:07.127Z,50.78
2022-10-09T10:03:35.626Z,49.63
2022-10-09T10:06:02.233Z,47.66
2022-10-09T10:08:33.877Z,51.27
2022-10-09T10:11:03.848Z,46.04
2022-10-09T10:13:33.005Z,39.71
2022-10-09T10:16:00.290Z,37.97
2022-10-09T10:18:29.158Z,43.88
2022-10-09T10:20:57.759Z,42.29
2022-10-09T10:23:33.175Z,43.60
2022-10-09T10:26:07.352Z,42.87
2022-10-09T10:28:50.222Z,47.42
2022-10-09T10:31:47.307Z,48.94
2022-10-09T10:34:32.487Z,45.46
2022-10-09T10:37:05.126Z,44.35
2022-10-09T10:39:55.137Z,43.99
2022-10-09T10:42:25.017Z,41.08
2022-10-09T10:45:04.205Z,44.81
2022-10-09T10:47:35.021Z,46.90
2022-10-09T10:50:01.953Z,45.22
2022-10-09T10:53:05.667Z,40.54
2022-10-09T10:55:49.082Z,37.78
2022-10-09T10:58:49.371Z,37.06
2022-10-09T11:01:15.909Z,40.37
2022-10-09T11:04:07.523Z,36.75
2022-10-09T11:06:52.390Z,43.67
2022-10-09T11:09:31.655Z,44.84
2022-10-09T11:12:19.566Z,44.02
2022-10-09T11:15:10.953Z,41.26
2022-10-09T11:17:49.903Z,38.70
2022-10-09T11:20:36.286Z,43.72
2022-10-09T11:23:25.419Z,45.70
2022-10-09T11:26:26.046Z,44.59
2022-10-09T11:28:57.908Z,47.68
2022-10-09T11:31:42.323Z,49.99
2022-10-09T11:34:15.681Z,47.87
2022-10-09T11:36:44.173Z,47.67
2022-10-09T11:39:26.584Z,46.49
2022-10-09T11:41:54.507Z,46.42
2022-10-09T11:45:06.417Z,48.44
2022-10-09T11:48:08.773Z,47.60
2022-10-09T11:50:53.266Z,47.75
2022-10-09T11:53:22.276Z,40.69
2022-10-09T11:55:48.866Z,41.59
2022-10-09T11:58:18.749Z,43.33
2022-10-09T12:00:46.959Z,43.40
2022-10-09T12:03:38.967Z,40.90
2022-10-09T12:06:14.377Z,42.25
2022-10-09T12:08:43.779Z,40.31
2022-10-09T12:11:17.822Z,36.46
2022-10-09T12:13:46.109Z,33.12
2022-10-09T12:16:34.789Z,29.73
2022-10-09T12:19:35.393Z,26.04
2022-10-09T12:22:22.880Z,26.15
2022-10-09T12:24:58.024Z,24.36
2022-10-09T12:27:28.086Z,24.13
2022-10-09T12:29:56.390Z,23.73
2022-10-09T12:32:40.646Z,22.76
2022-10-09T12:35:29.533Z,23.71
2022-10-09T12:37:55.970Z,22.88
2022-10-09T12:40:25.190Z,23.07
2022-10-09T12:42:53.854Z,22.60
2022-10-09T12:45:31.055Z,22.84
2022-10-09T12:48:00.093Z,23.04
2022-10-09T12:50:33.535Z,22.78
2022-10-09T12:53:03.032Z,23.71
2022-10-09T12:55:35.718Z,23.63
2022-10-09T12:58:08.141Z,23.40
2022-10-09T13:00:35.360Z,22.31
2022-10-09T13:03:03.991Z,22.17
2022-10-09T13:05:38.618Z,23.01
2022-10-09T13:08:06.167Z,23.58
2022-10-09T13:10:32.667Z,23.15
2022-10-09T13:12:59.600Z,22.73
2022-10-09T13:15:36.970Z,23.13
2022-10-09T13:18:18.572Z,22.79
2022-10-09T13:20:45.327Z,22.87
2022-10-09T13:23:33.361Z,22.32
2022-10-09T13:26:03.637Z,23.84
2022-10-09T13:28:30.767Z,22.90
2022-10-09T13:31:06.315Z,23.85
2022-10-09T13:33:32.864Z,23.22
2022-10-09T13:36:01.499Z,23.18
2022-10-09T13:38:31.407Z,23.35
2022-10-09T13:41:00.689Z,23.62
2022-10-09T13:43:28.783Z,22.75
2022-10-09T13:45:58.026Z,22.67
2022-10-09T13:48:25.758Z,23.00
2022-10-09T13:50:52.590Z,22.49
2022-10-09T13:53:19.270Z,22.98
2022-10-09T13:55:45.987Z,23.08
2022-10-09T13:58:12.795Z,22.94
2022-10-09T14:00:39.419Z,23.48
2022-10-09T14:03:06.284Z,23.66
2022-10-09T14:05:32.856Z,23.51
2022-10-09T14:07:59.419Z,21.78
2022-10-09T14:10:26.737Z,23.70
2022-10-09T14:12:53.198Z,23.81
2022-10-09T14:15:20.030Z,23.37
2022-10-09T14:17:46.713Z,23.77
2022-10-09T14:20:13.838Z,23.63
2022-10-09T14:22:40.601Z,22.94
2022-10-09T14:25:08.022Z,23.24
2022-10-09T14:30:06.429Z,22.94
2022-10-09T14:32:32.976Z,23.77
2022-10-09T14:34:59.513Z,23.77
2022-10-09T14:37:42.376Z,23.27
2022-10-09T14:40:11.123Z,24.20
2022-10-09T14:42:41.143Z,23.19
2022-10-09T14:45:11.929Z,23.57
2022-10-09T14:47:38.407Z,23.15
2022-10-09T14:50:05.482Z,23.22
2022-10-09T14:52:32.156Z,24.10
2022-10-09T14:54:58.701Z,23.30
2022-10-09T14:57:25.239Z,23.11
2022-10-09T14:59:52.402Z,23.78
2022-10-09T15:02:19.179Z,23.08
2022-10-09T15:04:45.827Z,23.43
2022-10-09T15:07:12.359Z,22.05
2022-10-09T15:09:39.135Z,23.19
2022-10-09T15:12:05.727Z,23.02
2022-10-09T15:14:32.167Z,23.55
2022-10-09T15:16:58.978Z,23.61
2022-10-09T15:19:25.546Z,22.98
2022-10-09T15:21:52.055Z,22.84
2022-10-09T15:24:18.764Z,23.17
2022-10-09T15:26:45.337Z,22.25
2022-10-09T15:29:12.123Z,22.93
2022-10-09T15:31:40.406Z,23.24
2022-10-09T15:34:08.754Z,23.21
2022-10-09T15:36:37.849Z,23.23
2022-10-09T15:39:07.262Z,22.64
2022-10-09T15:41:36.242Z,22.37
2022-10-09T15:44:05.505Z,22.12
2022-10-09T15:46:32.400Z,22.35
2022-10-09T15:48:58.961Z,22.04
2022-10-09T15:51:26.079Z,21.71
2022-10-09T15:53:53.168Z,22.14
2022-10-09T15:56:22.394Z,21.96
2022-10-09T15:58:49.771Z,21.53
2022-10-09T16:01:17.048Z,22.05
2022-10-09T16:03:44.543Z,21.81
2022-10-09T16:06:13.615Z,21.26
2022-10-09T16:08:40.785Z,21.10
2022-10-09T16:11:10.436Z,21.35
2022-10-09T16:13:39.309Z,20.83
2022-10-09T16:16:07.575Z,20.50
2022-10-09T16:18:36.947Z,20.35
2022-10-09T16:21:19.376Z,19.95
2022-10-09T16:23:46.558Z,19.82
2022-10-09T16:26:17.025Z,19.87
2022-10-09T16:28:44.122Z,19.87
2022-10-09T16:31:24.758Z,19.77
2022-10-09T16:33:51.935Z,19.64
2022-10-09T16:36:18.812Z,19.72
2022-10-09T16:38:45.733Z,19.21
2022-10-09T16:41:17.958Z,19.50
2022-10-09T16:43:46.137Z,19.28
2022-10-09T16:46:18.667Z,19.22
2022-10-09T16:48:45.536Z,19.25
2022-10-09T16:51:15.669Z,19.26
2022-10-09T16:53:42.450Z,19.06
2022-10-09T16:56:11.738Z,19.02
2022-10-09T16:58:38.895Z,18.90
2022-10-09T17:01:09.580Z,18.88
2022-10-09T17:03:36.666Z,18.72
2022-10-09T17:06:09.841Z,18.41
2022-10-09T17:08:36.453Z,18.46
2022-10-09T17:11:09.864Z,18.57
2022-10-09T17:13:36.993Z,18.50
2022-10-09T17:16:07.785Z,18.48
2022-10-09T17:18:34.966Z,18.43
2022-10-09T17:21:06.506Z,18.42
2022-10-09T17:23:33.601Z,18.46
2022-10-09T17:26:15.447Z,18.03
2022-10-09T17:28:43.038Z,17.77
2022-10-09T17:31:14.363Z,17.75
2022-10-09T17:33:44.877Z,17.85
2022-10-09T17:36:23.058Z,17.81
2022-10-09T17:38:53.056Z,17.96
2022-10-09T17:41:21.596Z,17.92
2022-10-09T17:43:48.062Z,17.69
2022-10-09T17:46:17.563Z,17.71
2022-10-09T17:48:46.967Z,17.86
2022-10-09T17:51:16.130Z,17.58
2022-10-09T17:53:42.771Z,17.59
2022-10-09T17:56:09.380Z,17.72
2022-10-09T17:58:36.075Z,17.23
2022-10-09T18:01:07.651Z,17.44
2022-10-09T18:03:38.429Z,17.09
2022-10-09T18:06:12.398Z,17.30
2022-10-09T18:08:39.766Z,17.00
2022-10-09T18:11:09.508Z,17.03
2022-10-09T18:13:37.528Z,16.87
2022-10-09T18:16:16.297Z,17.09
2022-10-09T18:18:42.945Z,17.24
2022-10-09T18:21:11.899Z,17.10
2022-10-09T18:23:39.225Z,16.82
2022-10-09T18:26:10.592Z,17.19
2022-10-09T18:28:37.659Z,17.05
2022-10-09T18:31:08.759Z,17.30
2022-10-09T18:33:36.003Z,17.21
2022-10-09T18:36:11.843Z,16.66
2022-10-09T18:38:38.367Z,16.87
2022-10-09T18:41:08.338Z,16.67
2022-10-09T18:43:34.928Z,16.37
2022-10-09T18:46:01.795Z,16.42
2022-10-09T18:48:33.729Z,16.74
2022-10-09T18:51:01.021Z,15.98
2022-10-09T18:53:29.121Z,16.54
2022-10-09T18:55:56.009Z,16.62
2022-10-09T18:58:22.961Z,16.48
2022-10-09T19:00:49.771Z,16.21
2022-10-09T19:03:16.433Z,16.59
2022-10-09T19:05:46.104Z,16.47
2022-10-09T19:08:13.222Z,16.63
2022-10-09T19:10:39.757Z,16.42
2022-10-09T19:13:06.259Z,16.56
2022-10-09T19:15:32.753Z,16.44
2022-10-09T19:17:59.243Z,16.39
2022-10-09T19:20:28.910Z,15.88
2022-10-09T19:22:55.394Z,16.31
2022-10-09T19:25:22.027Z,16.36
2022-10-09T19:27:48.861Z,16.04
2022-10-09T19:30:15.542Z,16.20
2022-10-09T19:32:42.343Z,16.19
2022-10-09T19:35:09.247Z,16.15
2022-10-09T19:37:35.842Z,16.27
2022-10-09T19:40:02.776Z,15.81
2022-10-09T19:42:29.233Z,15.98
2022-10-09T19:44:55.740Z,15.71
2022-10-09T19:47:23.652Z,15.47
2022-10-09T19:49:50.149Z,16.20
2022-10-09T19:52:17.097Z,15.74
2022-10-09T19:54:43.714Z,15.74
2022-10-09T19:57:10.747Z,15.64
2022-10-09T19:59:37.298Z,15.88
2022-10-09T20:02:04.227Z,15.39
2022-10-09T20:04:31.146Z,15.54
2022-10-09T20:06:57.670Z,15.38
2022-10-09T20:09:24.246Z,15.43
2022-10-09T20:11:50.935Z,14.99
2022-10-09T20:14:17.377Z,15.65
2022-10-09T20:16:43.899Z,15.28
2022-10-09T20:19:10.753Z,15.46
2022-10-09T20:21:37.257Z,15.31
2022-10-09T20:24:04.218Z,15.70
2022-10-09T20:26:33.054Z,15.36
2022-10-09T20:28:59.885Z,15.02
2022-10-09T20:31:27.518Z,15.06
2022-10-09T20:33:54.870Z,15.38
2022-10-09T20:36:22.808Z,15.22
2022-10-09T20:38:50.122Z,15.20
2022-10-09T20:41:17.052Z,14.90
2022-10-09T20:43:43.727Z,15.36
2022-10-09T20:46:13.741Z,15.30
2022-10-09T20:48:41.439Z,15.31
2022-10-09T20:51:15.368Z,14.81
2022-10-09T20:53:41.968Z,15.08
2022-10-09T20:56:09.940Z,15.09
2022-10-09T20:58:37.748Z,14.96
2022-10-09T21:01:06.218Z,14.72
2022-10-09T21:03:34.139Z,15.19
2022-10-09T21:06:07.985Z,14.89
2022-10-09T21:08:35.048Z,14.63
2022-10-09T21:11:05.585Z,14.45
2022-10-09T21:13:32.082Z,14.70
2022-10-09T21:15:58.663Z,14.59
2022-10-09T21:18:25.350Z,13.96
2022-10-09T21:20:51.858Z,14.44
2022-10-09T21:23:19.083Z,14.75
2022-10-09T21:25:50.851Z,14.58
2022-10-09T21:28:22.125Z,14.48
2022-10-09T21:30:49.648Z,14.50
2022-10-09T21:33:17.444Z,14.12
2022-10-09T21:35:46.887Z,14.62
2022-10-09T21:38:16.295Z,14.56
2022-10-09T21:40:43.138Z,14.37
2022-10-09T21:43:10.551Z,14.44
2022-10-09T21:45:38.086Z,14.15
2022-10-09T21:48:05.128Z,14.01
2022-10-09T21:50:33.065Z,13.76
2022-10-09T21:53:00.275Z,13.04
2022-10-09T21:55:27.003Z,13.73
2022-10-09T21:57:53.595Z,13.82
2022-10-09T22:00:20.484Z,13.91
2022-10-09T22:02:47.764Z,13.09
2022-10-09T22:05:14.670Z,13.27
2022-10-09T22:07:41.151Z,13.60
2022-10-09T22:10:08.130Z,13.04
2022-10-09T22:12:34.598Z,13.67
2022-10-09T22:15:01.212Z,13.73
2022-10-09T22:17:27.789Z,13.97
2022-10-09T22:19:54.357Z,14.06
2022-10-09T22:22:23.706Z,14.10
2022-10-09T22:24:51.470Z,14.14
2022-10-09T22:27:19.320Z,13.99
2022-10-09T22:29:46.044Z,14.32
2022-10-09T22:32:12.591Z,14.15
2022-10-09T22:34:39.131Z,14.01
2022-10-09T22:37:06.124Z,13.88
2022-10-09T22:39:32.574Z,13.80
2022-10-09T22:41:59.067Z,13.96
2022-10-09T22:44:25.509Z,14.33
2022-10-09T22:46:52.305Z,13.91
2022-10-09T22:49:18.752Z,13.75
2022-10-09T22:51:45.935Z,14.15
2022-10-09T22:54:13.310Z,14.20
2022-10-09T22:56:44.335Z,14.42
2022-10-09T22:59:14.147Z,14.00
2022-10-09T23:01:45.996Z,14.06
2022-10-09T23:04:13.462Z,14.00
2022-10-09T23:06:40.297Z,13.99
2022-10-09T23:09:08.184Z,13.80
2022-10-09T23:11:35.108Z,14.25
2022-10-09T23:14:02.338Z,14.04
2022-10-09T23:16:30.031Z,14.01
2022-10-09T23:18:58.317Z,14.14
2022-10-09T23:21:25.104Z,13.71
2022-10-09T23:23:52.652Z,13.62
2022-10-09T23:26:22.512Z,13.98
2022-10-09T23:28:51.061Z,13.95
2022-10-09T23:31:17.865Z,13.95
2022-10-09T23:33:45.057Z,13.46
2022-10-09T23:36:14.200Z,13.70
2022-10-09T23:38:40.976Z,13.40
2022-10-09T23:41:10.700Z,13.81
2022-10-09T23:43:38.815Z,13.84
2022-10-09T23:46:07.048Z,13.76
2022-10-09T23:48:34.349Z,13.77
2022-10-09T23:51:00.965Z,13.78
2022-10-09T23:53:27.957Z,13.88
2022-10-09T23:55:55.055Z,13.75
2022-10-09T23:58:22.486Z,13.78
